Weather at Westchester County Airport

Public forecast

Using degrees Fahrenheit for public forecast. Weather courtesy of forecast.io.

Current aviation weather report (METAR) for Westchester County Airport

Retrieved 2020/12/04 03:56 UTC (46 minutes ago):

KHPN 040356Z VRB05KT 10SM BKN095 07/M07 A3012 RMK AO2 SLP205 T00721072

Aviation forecast (TAF) for Westchester County Airport

Retrieved 2020-12-04 00:27 UTC (4 hours ago):

TAF KHPN 032325Z 0400/0424 24005KT P6SM BKN150 FM041800 23007KT P6SM VCSH SCT025 OVC050 FM042200 22004KT P6SM -RA FEW020 OVC035 AMD NOT SKED